Time;durP1;ratioP1;P1;durP2;ratioP2;P2;SDS_P1;SDS_P2;PMS_P1;PMS_P2;Temp;Humidity;BMP_temperature;BMP_pressure;BME280_temperature;BME280_humidity;BME280_pressure;Samples;Min_cycle;Max_cycle;Signal;HPM_P1;HPM_P2
2024/01/07 00:01:11;;;;;;;13.90;6.20;;;;;;;-2.09;86.55;100144.34;130127;1259;114789;-67
2024/01/07 00:04:34;;;;;;;10.20;6.30;;;;;;;-2.10;87.00;100143.65;130252;1258;114714;-68
2024/01/07 00:07:36;;;;;;;10.50;5.40;;;;;;;-2.12;86.94;100146.97;130255;1258;114966;-67
2024/01/07 00:10:38;;;;;;;14.60;7.10;;;;;;;-2.15;87.09;100154.85;130342;1259;114721;-67
2024/01/07 00:13:40;;;;;;;12.70;4.90;;;;;;;-2.18;87.38;100152.91;130246;1277;114712;-67
2024/01/07 00:16:41;;;;;;;6.00;3.40;;;;;;;-2.25;87.00;100146.96;130157;1256;115396;-67
2024/01/07 00:19:43;;;;;;;11.90;6.90;;;;;;;-2.35;86.45;100147.13;130301;1259;114716;-67
2024/01/07 00:22:45;;;;;;;7.80;3.40;;;;;;;-2.44;87.40;100148.02;130270;1257;114750;-67
2024/01/07 00:25:47;;;;;;;14.70;7.90;;;;;;;-2.49;87.52;100146.60;129885;1259;114833;-67
2024/01/07 00:28:50;;;;;;;14.50;7.60;;;;;;;-2.51;87.58;100146.77;130176;1259;114696;-67
2024/01/07 00:31:52;;;;;;;15.00;8.40;;;;;;;-2.50;88.23;100151.50;130024;1262;114820;-67
2024/01/07 00:34:54;;;;;;;12.50;6.30;;;;;;;-2.47;87.91;100156.73;130156;1257;114652;-67
2024/01/07 00:37:56;;;;;;;14.00;7.70;;;;;;;-2.47;87.71;100158.85;130165;1259;114714;-67
2024/01/07 00:40:58;;;;;;;13.90;6.60;;;;;;;-2.47;88.38;100153.77;130284;1275;114711;-68
2024/01/07 00:44:00;;;;;;;14.00;7.00;;;;;;;-2.45;88.17;100152.55;130167;1259;128558;-67
2024/01/07 00:47:02;;;;;;;17.40;8.70;;;;;;;-2.43;88.09;100154.30;130247;1257;115530;-67
2024/01/07 00:50:05;;;;;;;14.00;6.60;;;;;;;-2.41;88.20;100156.23;130224;1259;115185;-67
2024/01/07 00:53:06;;;;;;;11.80;5.40;;;;;;;-2.42;88.03;100155.00;129965;1277;114902;-68
2024/01/07 00:56:08;;;;;;;14.90;5.60;;;;;;;-2.45;87.69;100156.39;130246;1277;114783;-67
2024/01/07 00:59:10;;;;;;;8.60;4.20;;;;;;;-2.49;87.65;100155.52;130125;1260;114788;-67
2024/01/07 01:02:12;;;;;;;10.80;5.50;;;;;;;-2.50;87.92;100159.02;130270;1274;114690;-67
2024/01/07 01:05:14;;;;;;;11.50;5.30;;;;;;;-2.53;87.83;100156.03;130207;1259;114770;-66
2024/01/07 01:08:16;;;;;;;12.50;5.70;;;;;;;-2.55;87.49;100150.78;130322;1259;114717;-67
2024/01/07 01:11:18;;;;;;;10.20;3.70;;;;;;;-2.54;87.92;100158.47;130206;1259;114732;-66
2024/01/07 01:14:20;;;;;;;8.20;3.90;;;;;;;-2.54;88.18;100160.40;130261;1259;114792;-68
2024/01/07 01:17:22;;;;;;;16.20;6.30;;;;;;;-2.55;87.46;100164.95;130295;1256;114725;-66
2024/01/07 01:20:24;;;;;;;10.70;5.00;;;;;;;-2.54;87.71;100172.11;129940;1265;114907;-66
2024/01/07 01:23:26;;;;;;;12.40;6.50;;;;;;;-2.56;87.36;100172.81;130135;1259;114798;-67
2024/01/07 01:26:27;;;;;;;10.30;4.80;;;;;;;-2.57;86.92;100172.98;130220;1259;114767;-66
2024/01/07 01:29:29;;;;;;;10.80;6.40;;;;;;;-2.56;86.53;100173.17;129821;1262;127524;-66
2024/01/07 01:32:31;;;;;;;13.00;6.90;;;;;;;-2.56;86.82;100173.34;130262;1259;114758;-67
2024/01/07 01:35:33;;;;;;;12.20;5.90;;;;;;;-2.54;86.57;100179.80;130192;1259;114770;-67
2024/01/07 01:38:35;;;;;;;9.80;4.80;;;;;;;-2.55;86.09;100179.46;130235;1254;114713;-66
2024/01/07 01:41:37;;;;;;;10.50;5.90;;;;;;;-2.59;85.83;100179.29;130240;1256;114716;-66
2024/01/07 01:44:39;;;;;;;10.10;4.80;;;;;;;-2.60;86.22;100178.23;130218;1259;114717;-66
2024/01/07 01:47:41;;;;;;;14.80;8.30;;;;;;;-2.59;85.91;100179.80;130204;1256;114727;-67
2024/01/07 01:50:46;;;;;;;10.60;6.20;;;;;;;-2.60;85.77;100184.88;130154;1262;129112;-67
2024/01/07 01:53:49;;;;;;;15.10;6.50;;;;;;;-2.62;85.76;100181.54;130282;1258;115292;-67
2024/01/07 01:56:51;;;;;;;9.90;4.60;;;;;;;-2.62;85.67;100188.89;130062;1260;115137;-67
2024/01/07 01:59:53;;;;;;;13.90;6.60;;;;;;;-2.64;85.19;100192.03;130230;1259;114785;-67
2024/01/07 02:02:55;;;;;;;9.30;4.10;;;;;;;-2.66;85.66;100190.10;130185;1258;114777;-67
2024/01/07 02:05:57;;;;;;;8.70;4.60;;;;;;;-2.69;85.68;100191.31;130171;1259;115311;-67
2024/01/07 02:09:00;;;;;;;13.90;5.20;;;;;;;-2.76;85.77;100189.20;130074;1260;114706;-67
2024/01/07 02:12:03;;;;;;;9.30;4.40;;;;;;;-2.83;85.75;100192.67;130219;1259;128642;-67
2024/01/07 02:15:05;;;;;;;9.10;4.20;;;;;;;-2.89;85.93;100192.83;130269;1259;114856;-67
2024/01/07 02:18:07;;;;;;;12.90;6.70;;;;;;;-2.94;85.73;100187.03;130311;1260;114786;-67
2024/01/07 02:21:10;;;;;;;13.30;6.40;;;;;;;-2.97;86.26;100189.83;129988;1260;114773;-69
2024/01/07 02:24:18;;;;;;;8.30;4.30;;;;;;;-2.97;86.35;100192.27;129909;1265;114899;-67
2024/01/07 02:27:20;;;;;;;14.60;7.50;;;;;;;-3.01;86.46;100192.61;129794;1263;114895;-66
2024/01/07 02:30:23;;;;;;;11.20;6.20;;;;;;;-3.02;86.89;100188.57;130119;1260;115097;-67
2024/01/07 02:33:25;;;;;;;8.30;4.40;;;;;;;-3.05;86.60;100193.98;130313;1260;116323;-68
2024/01/07 02:36:27;;;;;;;13.60;6.60;;;;;;;-3.06;87.22;100193.63;130058;1259;114780;-71
2024/01/07 02:39:28;;;;;;;8.50;4.70;;;;;;;-3.06;87.28;100199.39;130255;1260;114812;-67
2024/01/07 02:42:30;;;;;;;12.70;6.50;;;;;;;-3.05;86.69;100198.88;130338;1259;114770;-67
2024/01/07 02:45:32;;;;;;;14.50;7.90;;;;;;;-3.02;87.33;100194.87;129881;1262;114827;-69
2024/01/07 02:48:34;;;;;;;13.70;6.60;;;;;;;-3.01;87.42;100197.67;130250;1254;115272;-66
2024/01/07 02:51:36;;;;;;;19.80;8.80;;;;;;;-2.99;87.59;100195.23;130330;1254;114724;-67
2024/01/07 02:54:38;;;;;;;12.30;5.90;;;;;;;-2.96;87.51;100197.16;130302;1260;128666;-67
2024/01/07 02:57:40;;;;;;;15.70;8.40;;;;;;;-2.94;87.68;100201.20;130263;1259;115352;-68
2024/01/07 03:00:42;;;;;;;11.80;5.10;;;;;;;-2.95;87.47;100206.79;130329;1259;114728;-67
2024/01/07 03:03:44;;;;;;;13.20;7.00;;;;;;;-2.97;87.22;100205.56;130263;1256;114716;-67
2024/01/07 03:06:46;;;;;;;17.60;7.30;;;;;;;-3.01;86.91;100208.86;130177;1259;115157;-66
2024/01/07 03:09:51;;;;;;;14.80;8.60;;;;;;;-3.03;87.24;100210.77;130293;1277;114734;-67
2024/01/07 03:12:52;;;;;;;16.70;8.70;;;;;;;-3.03;87.56;100209.20;130059;1273;114834;-67
2024/01/07 03:15:54;;;;;;;17.00;8.80;;;;;;;-2.99;87.71;100209.40;130217;1269;114699;-67
2024/01/07 03:18:56;;;;;;;9.30;5.40;;;;;;;-2.98;87.41;100206.44;129977;1261;114715;-68
2024/01/07 03:21:58;;;;;;;13.70;7.60;;;;;;;-2.99;86.51;100209.56;129926;1262;114870;-67
2024/01/07 03:25:00;;;;;;;11.50;6.40;;;;;;;-2.99;86.65;100210.27;130047;1274;114800;-67
2024/01/07 03:28:02;;;;;;;7.10;3.80;;;;;;;-2.98;86.29;100210.27;130406;1278;115087;-66
2024/01/07 03:31:15;;;;;;;14.20;6.70;;;;;;;-2.98;85.31;100209.92;130015;1263;114772;-67
2024/01/07 03:34:17;;;;;;;10.00;5.50;;;;;;;-2.99;85.11;100211.67;130129;1259;114712;-66
2024/01/07 03:37:19;;;;;;;11.70;5.70;;;;;;;-3.00;84.43;100213.76;130028;1267;114720;-66
2024/01/07 03:40:22;;;;;;;7.40;4.00;;;;;;;-2.99;84.66;100219.70;130110;1259;115155;-67
2024/01/07 03:43:24;;;;;;;11.10;5.10;;;;;;;-2.97;84.49;100221.80;130001;1257;114792;-66
2024/01/07 03:46:26;;;;;;;7.10;4.00;;;;;;;-2.96;83.21;100220.41;130076;1260;114790;-66
2024/01/07 03:49:28;;;;;;;9.50;5.60;;;;;;;-2.98;82.80;100221.98;130056;1259;115166;-67
2024/01/07 03:52:29;;;;;;;11.00;5.80;;;;;;;-2.98;83.41;100223.02;130121;1259;114803;-67
2024/01/07 03:55:31;;;;;;;12.00;6.00;;;;;;;-2.95;83.43;100225.99;129952;1259;114715;-64
2024/01/07 03:58:35;;;;;;;7.40;4.70;;;;;;;-2.94;82.92;100226.00;130273;1260;114766;-66
2024/01/07 04:01:36;;;;;;;11.30;6.50;;;;;;;-2.94;82.79;100231.24;130129;1259;128505;-67
2024/01/07 04:04:38;;;;;;;10.40;5.60;;;;;;;-2.93;82.73;100234.58;130251;1275;114715;-66
2024/01/07 04:07:40;;;;;;;10.90;6.40;;;;;;;-2.92;82.43;100239.83;130275;1260;114741;-66
2024/01/07 04:10:42;;;;;;;8.80;4.60;;;;;;;-2.91;83.11;100233.71;130105;1267;114740;-66
2024/01/07 04:13:44;;;;;;;14.80;6.60;;;;;;;-2.88;82.88;100239.30;130311;1259;114728;-66
2024/01/07 04:16:46;;;;;;;10.50;6.20;;;;;;;-2.88;83.08;100241.40;130282;1267;114729;-67
2024/01/07 04:19:48;;;;;;;10.20;6.60;;;;;;;-2.90;82.87;100247.16;130081;1271;114738;-67
2024/01/07 04:22:50;;;;;;;9.70;5.70;;;;;;;-2.88;83.08;100257.30;130242;1258;114786;-66
2024/01/07 04:25:51;;;;;;;10.60;5.50;;;;;;;-2.88;82.92;100262.73;130437;1259;114802;-67
2024/01/07 04:28:53;;;;;;;10.70;5.70;;;;;;;-2.88;82.67;100261.14;130333;1259;114871;-68
2024/01/07 04:31:55;;;;;;;12.20;5.80;;;;;;;-2.91;82.34;100263.95;130255;1259;114813;-67
2024/01/07 04:34:57;;;;;;;5.30;4.00;;;;;;;-2.93;82.23;100263.58;130327;1259;114794;-67
2024/01/07 04:37:59;;;;;;;5.50;3.40;;;;;;;-2.97;81.03;100266.17;130333;1260;114776;-67
2024/01/07 04:41:01;;;;;;;8.30;4.50;;;;;;;-3.01;81.10;100266.51;130158;1269;116541;-67
2024/01/07 04:44:03;;;;;;;6.20;3.40;;;;;;;-3.05;81.32;100267.71;130328;1259;114619;-67
2024/01/07 04:47:25;;;;;;;9.20;5.90;;;;;;;-3.07;80.99;100269.27;130212;1254;128533;-67
2024/01/07 04:50:27;;;;;;;9.40;4.80;;;;;;;-3.08;81.61;100274.67;130253;1259;114768;-68
2024/01/07 04:53:28;;;;;;;11.50;5.60;;;;;;;-3.06;81.81;100276.09;130214;1261;115081;-67
2024/01/07 04:56:30;;;;;;;11.50;5.10;;;;;;;-3.04;82.02;100285.54;130270;1267;114706;-68
2024/01/07 04:59:32;;;;;;;6.80;4.50;;;;;;;-3.02;81.97;100284.85;130187;1259;114709;-67
2024/01/07 05:02:34;;;;;;;11.90;4.40;;;;;;;-3.03;81.67;100293.92;130144;1256;114708;-68
2024/01/07 05:05:36;;;;;;;8.40;4.20;;;;;;;-3.06;80.62;100293.38;130204;1257;114751;-68
2024/01/07 05:08:40;;;;;;;7.40;3.90;;;;;;;-3.10;80.99;100291.96;130153;1257;128607;-67
2024/01/07 05:11:42;;;;;;;6.40;3.80;;;;;;;-3.12;80.59;100304.36;130165;1274;114775;-67
2024/01/07 05:14:46;;;;;;;6.20;4.30;;;;;;;-3.15;80.86;100305.04;130168;1267;114769;-67
2024/01/07 05:17:48;;;;;;;9.00;5.50;;;;;;;-3.18;81.07;100303.27;130250;1259;114808;-67
2024/01/07 05:20:51;;;;;;;8.80;5.50;;;;;;;-3.18;81.17;100307.45;130231;1260;114719;-67
2024/01/07 05:23:53;;;;;;;5.30;2.70;;;;;;;-3.17;81.29;100311.31;130026;1259;115667;-68
2024/01/07 05:26:54;;;;;;;9.60;5.60;;;;;;;-3.17;80.72;100317.25;130145;1261;128073;-66
2024/01/07 05:29:57;;;;;;;9.40;5.10;;;;;;;-3.17;80.82;100324.42;130185;1254;114699;-68
2024/01/07 05:32:58;;;;;;;10.70;5.00;;;;;;;-3.18;80.40;100325.63;130225;1263;114781;-67
2024/01/07 05:36:01;;;;;;;11.80;5.20;;;;;;;-3.19;81.00;100327.89;130213;1260;115274;-67
2024/01/07 05:39:03;;;;;;;9.60;4.40;;;;;;;-3.16;81.30;100326.52;129997;1262;115142;-67
2024/01/07 05:42:05;;;;;;;9.30;4.50;;;;;;;-3.15;80.93;100329.67;130247;1259;114994;-67
2024/01/07 05:45:07;;;;;;;7.40;3.80;;;;;;;-3.16;81.25;100331.40;130155;1260;114779;-68
2024/01/07 05:48:09;;;;;;;6.30;4.40;;;;;;;-3.16;80.53;100336.14;130146;1269;114795;-67
2024/01/07 05:51:12;;;;;;;4.00;2.50;;;;;;;-3.18;80.36;100332.43;130228;1260;121007;-68
2024/01/07 05:54:14;;;;;;;8.10;4.20;;;;;;;-3.19;80.15;100335.92;130043;1264;114799;-67
2024/01/07 05:57:16;;;;;;;5.90;3.20;;;;;;;-3.24;79.54;100334.49;130390;1277;114716;-67
2024/01/07 06:00:18;;;;;;;6.30;3.80;;;;;;;-3.29;79.36;100339.34;130371;1277;114812;-66
2024/01/07 06:03:20;;;;;;;10.80;5.90;;;;;;;-3.31;79.52;100345.62;130006;1265;114780;-66
2024/01/07 06:06:22;;;;;;;10.00;4.10;;;;;;;-3.35;79.39;100345.23;130310;1268;114832;-66
2024/01/07 06:09:24;;;;;;;5.30;3.30;;;;;;;-3.37;79.88;100348.20;130195;1259;115279;-67
2024/01/07 06:12:26;;;;;;;8.00;4.60;;;;;;;-3.38;79.26;100354.64;129889;1278;127347;-67
2024/01/07 06:15:29;;;;;;;4.10;2.50;;;;;;;-3.42;79.41;100348.85;130157;1260;114734;-67
2024/01/07 06:18:31;;;;;;;6.10;4.30;;;;;;;-3.43;80.07;100353.02;130289;1260;115391;-66
2024/01/07 06:21:33;;;;;;;8.30;4.20;;;;;;;-3.42;80.19;100359.86;129829;1262;114978;-67
2024/01/07 06:24:36;;;;;;;5.90;3.70;;;;;;;-3.41;79.86;100361.62;130228;1260;114729;-67
2024/01/07 06:27:41;;;;;;;4.80;3.10;;;;;;;-3.42;79.42;100368.05;130273;1267;114805;-67
2024/01/07 06:30:43;;;;;;;6.20;3.90;;;;;;;-3.44;79.05;100363.31;129939;1263;127852;-71
2024/01/07 06:33:45;;;;;;;4.00;2.70;;;;;;;-3.44;79.32;100363.48;130362;1267;114793;-67
2024/01/07 06:36:47;;;;;;;3.40;2.10;;;;;;;-3.44;79.12;100372.05;130365;1264;115240;-67
2024/01/07 06:39:49;;;;;;;6.50;3.60;;;;;;;-3.47;78.76;100379.53;130344;1270;114724;-68
2024/01/07 06:42:51;;;;;;;5.10;3.60;;;;;;;-3.49;78.56;100383.19;130322;1257;114709;-67
2024/01/07 06:45:55;;;;;;;7.80;3.50;;;;;;;-3.52;78.87;100393.11;130392;1254;115171;-67
2024/01/07 06:48:58;;;;;;;9.90;4.20;;;;;;;-3.53;78.88;100397.64;130237;1257;115323;-66
2024/01/07 06:52:00;;;;;;;8.20;4.60;;;;;;;-3.54;77.97;100397.10;130221;1254;114722;-69
2024/01/07 06:55:02;;;;;;;7.60;5.40;;;;;;;-3.56;78.57;100396.04;130252;1260;114713;-66
2024/01/07 06:58:04;;;;;;;8.70;3.70;;;;;;;-3.54;78.83;100401.98;129813;1262;114794;-66
2024/01/07 07:01:07;;;;;;;7.60;4.00;;;;;;;-3.51;78.97;100410.74;130154;1270;114796;-69
2024/01/07 07:04:09;;;;;;;5.40;3.00;;;;;;;-3.50;78.76;100417.21;130168;1255;114689;-68
2024/01/07 07:07:11;;;;;;;3.40;1.80;;;;;;;-3.50;78.34;100422.44;130364;1254;114783;-66
2024/01/07 07:10:13;;;;;;;5.50;2.90;;;;;;;-3.57;76.76;100423.43;130196;1276;128549;-67
2024/01/07 07:13:15;;;;;;;7.40;3.40;;;;;;;-3.61;77.27;100418.67;130092;1254;114790;-68
2024/01/07 07:16:17;;;;;;;3.80;2.20;;;;;;;-3.65;77.18;100423.71;130480;1259;115098;-67
2024/01/07 07:19:19;;;;;;;2.30;1.70;;;;;;;-3.67;77.07;100431.89;129900;1259;114868;-66
2024/01/07 07:22:20;;;;;;;4.90;2.40;;;;;;;-3.69;77.09;100431.33;130381;1259;114769;-66
2024/01/07 07:25:22;;;;;;;5.50;2.90;;;;;;;-3.70;77.00;100435.33;130406;1255;114725;-67
2024/01/07 07:28:24;;;;;;;5.00;2.50;;;;;;;-3.69;77.66;100437.80;130236;1260;114699;-70
2024/01/07 07:31:26;;;;;;;7.20;3.70;;;;;;;-3.68;77.58;100435.38;130233;1259;114789;-70
2024/01/07 07:34:28;;;;;;;5.30;3.00;;;;;;;-3.69;76.67;100438.48;130321;1254;114721;-67
2024/01/07 07:37:30;;;;;;;4.60;2.50;;;;;;;-3.68;77.34;100438.52;130109;1260;114730;-71
2024/01/07 07:40:32;;;;;;;4.30;2.40;;;;;;;-3.65;77.47;100438.71;130190;1267;115112;-69
2024/01/07 07:43:34;;;;;;;6.10;3.10;;;;;;;-3.62;77.27;100439.27;130214;1268;114738;-67
2024/01/07 07:46:36;;;;;;;4.30;2.50;;;;;;;-3.60;76.86;100440.67;129995;1254;114789;-69
2024/01/07 07:49:40;;;;;;;3.80;2.30;;;;;;;-3.62;76.37;100443.63;130237;1277;114664;-67
2024/01/07 07:52:43;;;;;;;3.70;2.00;;;;;;;-3.63;76.75;100445.36;130295;1277;114801;-70
2024/01/07 07:55:45;;;;;;;3.90;2.30;;;;;;;-3.62;76.48;100448.69;130227;1260;114735;-73
2024/01/07 07:58:48;;;;;;;3.40;1.80;;;;;;;-3.61;76.49;100453.06;130252;1259;114705;-67
2024/01/07 08:01:50;;;;;;;4.30;2.90;;;;;;;-3.57;76.73;100458.52;130255;1267;114865;-72
2024/01/07 08:04:52;;;;;;;4.10;2.50;;;;;;;-3.54;76.28;100465.52;129954;1258;114802;-71
2024/01/07 08:08:00;;;;;;;6.50;3.60;;;;;;;-3.54;76.45;100468.84;130339;1256;114708;-68
2024/01/07 08:11:02;;;;;;;5.20;2.20;;;;;;;-3.50;76.54;100470.11;130041;1264;127553;-70
2024/01/07 08:14:05;;;;;;;5.90;2.80;;;;;;;-3.48;75.73;100470.85;130139;1254;114813;-70
2024/01/07 08:17:08;;;;;;;6.70;3.40;;;;;;;-3.44;76.32;100469.65;130223;1260;115631;-69
2024/01/07 08:20:10;;;;;;;5.50;3.10;;;;;;;-3.39;76.45;100471.27;130258;1255;114712;-74
2024/01/07 08:23:12;;;;;;;6.40;3.30;;;;;;;-3.33;76.10;100472.39;130183;1276;114725;-71
2024/01/07 08:26:21;;;;;;;9.40;4.40;;;;;;;-3.29;76.19;100473.30;130263;1273;115275;-67
2024/01/07 08:29:23;;;;;;;3.40;2.00;;;;;;;-3.23;76.40;100476.84;130129;1273;130081;-68
2024/01/07 08:32:25;;;;;;;4.70;2.90;;;;;;;-3.23;75.30;100476.67;130166;1277;114769;-70
2024/01/07 08:35:27;;;;;;;5.40;3.60;;;;;;;-3.20;76.00;100479.84;130281;1277;114789;-72
2024/01/07 08:38:28;;;;;;;5.80;4.00;;;;;;;-3.10;75.72;100487.28;129881;1260;114889;-75
2024/01/07 08:41:30;;;;;;;4.20;2.30;;;;;;;-3.01;76.18;100489.10;130169;1254;115090;-73
2024/01/07 08:44:32;;;;;;;7.50;4.80;;;;;;;-2.88;76.58;100491.66;130295;1268;114771;-69
2024/01/07 08:47:35;;;;;;;9.50;5.90;;;;;;;-2.74;76.58;100492.30;129978;1254;114881;-75
2024/01/07 08:50:38;;;;;;;6.20;3.80;;;;;;;-2.58;76.13;100492.25;130200;1270;129219;-73
2024/01/07 08:53:40;;;;;;;34.00;14.50;;;;;;;-2.50;75.56;100494.75;130255;1270;114766;-73
2024/01/07 08:56:43;;;;;;;6.30;4.10;;;;;;;-2.36;76.39;100495.71;130212;1254;114724;-70
2024/01/07 08:59:45;;;;;;;6.40;4.40;;;;;;;-2.25;75.62;100495.08;130220;1264;114739;-72
2024/01/07 09:02:47;;;;;;;5.60;3.90;;;;;;;-2.23;75.28;100497.89;130238;1276;114700;-72
2024/01/07 09:05:49;;;;;;;7.00;4.00;;;;;;;-2.22;75.12;100499.83;129826;1263;115369;-72
2024/01/07 09:08:51;;;;;;;4.10;2.40;;;;;;;-2.21;75.02;100499.13;130203;1254;114783;-71
2024/01/07 09:11:53;;;;;;;6.90;4.20;;;;;;;-2.20;74.67;100501.41;130342;1261;114719;-76
2024/01/07 09:14:55;;;;;;;7.80;5.20;;;;;;;-2.18;74.27;100511.58;130206;1260;114760;-73
2024/01/07 09:17:56;;;;;;;5.10;3.80;;;;;;;-2.21;74.46;100511.55;130232;1267;114724;-77
2024/01/07 09:20:58;;;;;;;6.80;4.40;;;;;;;-2.20;74.46;100511.04;130431;1260;114684;-75
2024/01/07 09:24:00;;;;;;;5.20;3.70;;;;;;;-2.10;75.01;100512.32;130402;1270;114707;-72
2024/01/07 09:27:02;;;;;;;10.30;5.50;;;;;;;-2.03;74.17;100517.78;130192;1255;115259;-71
2024/01/07 09:30:05;;;;;;;9.50;5.40;;;;;;;-2.02;73.53;100521.81;130296;1254;115697;-71
2024/01/07 09:33:07;;;;;;;9.80;5.80;;;;;;;-2.03;73.73;100524.43;130256;1254;128847;-74
2024/01/07 09:36:10;;;;;;;6.30;3.50;;;;;;;-2.05;72.57;100525.65;130381;1260;114776;-72
2024/01/07 09:39:12;;;;;;;7.30;4.40;;;;;;;-2.12;72.59;100526.66;130247;1259;114724;-74
2024/01/07 09:42:16;;;;;;;7.10;3.60;;;;;;;-2.08;72.52;100523.19;130273;1257;114774;-77
2024/01/07 09:45:18;;;;;;;20.40;11.60;;;;;;;-2.04;72.01;100522.50;130254;1254;114724;-74
2024/01/07 09:48:20;;;;;;;6.80;4.10;;;;;;;-1.96;72.11;100519.39;130057;1269;114757;-72
2024/01/07 09:51:23;;;;;;;6.80;3.30;;;;;;;-1.99;71.65;100517.97;130363;1270;114724;-75
2024/01/07 09:54:25;;;;;;;4.80;3.40;;;;;;;-1.96;71.08;100521.84;129891;1254;127679;-73
2024/01/07 09:57:27;;;;;;;9.50;5.80;;;;;;;-2.00;70.98;100514.12;130052;1257;114869;-74
2024/01/07 10:00:30;;;;;;;6.70;4.30;;;;;;;-1.97;71.69;100512.03;130191;1278;115071;-73
2024/01/07 10:03:32;;;;;;;6.50;3.70;;;;;;;-1.91;71.99;100508.92;130316;1270;114811;-72
2024/01/07 10:06:34;;;;;;;6.20;4.10;;;;;;;-1.79;71.95;100500.92;130098;1270;115397;-73
2024/01/07 10:09:36;;;;;;;11.20;4.40;;;;;;;-1.79;71.19;100503.38;130181;1277;116335;-73
2024/01/07 10:12:37;;;;;;;7.40;4.50;;;;;;;-1.84;70.58;100504.23;130210;1261;115091;-73
2024/01/07 10:15:39;;;;;;;7.30;3.50;;;;;;;-1.88;70.82;100505.08;130270;1261;128724;-72
2024/01/07 10:18:41;;;;;;;6.10;3.00;;;;;;;-1.91;70.25;100502.44;130117;1259;114689;-72
2024/01/07 10:21:43;;;;;;;11.20;4.80;;;;;;;-1.95;70.26;100506.09;130082;1255;114776;-72
2024/01/07 10:24:45;;;;;;;10.40;6.00;;;;;;;-1.91;70.54;100508.58;130073;1262;114831;-72
2024/01/07 10:27:47;;;;;;;7.40;4.40;;;;;;;-1.95;69.97;100503.47;130250;1258;115170;-70
2024/01/07 10:30:50;;;;;;;6.90;3.50;;;;;;;-1.99;69.45;100506.95;130209;1259;114789;-71
2024/01/07 10:33:53;;;;;;;6.00;3.40;;;;;;;-1.99;70.14;100514.30;130246;1254;114638;-73
2024/01/07 10:36:56;;;;;;;7.30;3.50;;;;;;;-2.04;69.09;100519.00;130353;1257;114689;-71
2024/01/07 10:40:05;;;;;;;7.00;4.50;;;;;;;-2.11;68.81;100512.84;130132;1264;114683;-71
2024/01/07 10:43:07;;;;;;;6.80;3.50;;;;;;;-2.11;70.81;100511.26;130239;1258;114731;-71
2024/01/07 10:46:10;;;;;;;5.80;3.70;;;;;;;-2.03;70.00;100513.05;130302;1260;114758;-72
2024/01/07 10:49:23;;;;;;;5.60;3.30;;;;;;;-1.99;69.80;100505.03;130119;1260;114912;-70
2024/01/07 10:52:28;;;;;;;6.70;4.10;;;;;;;-1.99;69.03;100504.86;130355;1260;128096;-76
2024/01/07 10:55:36;;;;;;;5.60;3.40;;;;;;;-2.01;69.12;100507.13;129965;1257;114712;-72
2024/01/07 10:58:38;;;;;;;5.10;2.30;;;;;;;-1.97;69.01;100510.80;130051;1258;114946;-73
2024/01/07 11:01:40;;;;;;;5.80;3.90;;;;;;;-2.06;66.65;100516.54;130245;1254;114799;-73
2024/01/07 11:04:54;;;;;;;10.00;4.30;;;;;;;-2.20;68.48;100515.06;130316;1255;114732;-70
2024/01/07 11:08:03;;;;;;;9.20;5.90;;;;;;;-2.19;68.46;100512.27;130406;1254;114968;-71
2024/01/07 11:11:10;;;;;;;7.30;4.20;;;;;;;-2.20;68.63;100511.90;129938;1258;181345;-71
2024/01/07 11:14:36;;;;;;;7.60;4.10;;;;;;;-2.19;68.52;100509.11;130381;1258;114829;-73
2024/01/07 11:17:43;;;;;;;4.90;2.50;;;;;;;-2.20;67.93;100511.23;130132;1261;114916;-71
2024/01/07 11:20:46;;;;;;;8.80;5.20;;;;;;;-2.22;67.32;100508.93;130465;1253;114804;-71
2024/01/07 11:23:48;;;;;;;10.20;4.60;;;;;;;-2.22;68.33;100508.05;130224;1272;115221;-73
2024/01/07 11:26:53;;;;;;;9.00;4.70;;;;;;;-2.12;68.97;100504.96;130286;1258;114795;-72
2024/01/07 11:30:05;;;;;;;9.50;4.50;;;;;;;-2.06;68.60;100506.91;130323;1269;114814;-70
2024/01/07 11:33:11;;;;;;;5.80;3.60;;;;;;;-2.00;69.18;100514.83;130052;1254;114732;-69
2024/01/07 11:36:18;;;;;;;5.90;4.00;;;;;;;-2.02;68.41;100516.40;129963;1262;114889;-71
2024/01/07 11:39:20;;;;;;;7.50;3.90;;;;;;;-2.02;67.89;100516.73;129911;1257;116448;-72
2024/01/07 11:42:24;;;;;;;11.30;5.30;;;;;;;-2.04;67.32;100519.70;130186;1276;129118;-72
2024/01/07 11:45:26;;;;;;;12.40;5.60;;;;;;;-2.19;67.31;100519.27;130042;1261;115217;-70
2024/01/07 11:48:28;;;;;;;9.70;4.70;;;;;;;-2.25;68.04;100521.34;130330;1276;114715;-73
2024/01/07 11:51:32;;;;;;;10.60;6.10;;;;;;;-2.32;68.00;100516.39;130100;1258;114682;-72
2024/01/07 11:54:34;;;;;;;12.50;5.20;;;;;;;-2.36;67.46;100518.29;130365;1257;114709;-70
2024/01/07 11:57:36;;;;;;;9.10;4.70;;;;;;;-2.43;66.99;100518.94;130315;1254;114801;-71
2024/01/07 12:00:38;;;;;;;9.30;5.20;;;;;;;-2.52;67.30;100516.77;130382;1253;114857;-72
2024/01/07 12:03:41;;;;;;;8.20;4.70;;;;;;;-2.52;68.13;100514.31;130036;1259;127847;-73
2024/01/07 12:06:44;;;;;;;11.50;6.90;;;;;;;-2.52;67.75;100513.62;130371;1257;114680;-72
2024/01/07 12:09:55;;;;;;;10.30;5.40;;;;;;;-2.46;68.52;100515.08;130232;1259;114862;-72
2024/01/07 12:12:57;;;;;;;14.90;7.70;;;;;;;-2.44;68.14;100515.77;130463;1258;114828;-74
2024/01/07 12:16:00;;;;;;;8.90;4.60;;;;;;;-2.48;67.41;100517.32;130229;1260;114814;-72
2024/01/07 12:19:02;;;;;;;11.20;6.10;;;;;;;-2.58;67.66;100517.42;130060;1260;118530;-74
2024/01/07 12:22:06;;;;;;;13.80;7.60;;;;;;;-2.63;67.17;100521.23;130226;1259;127758;-70
2024/01/07 12:25:11;;;;;;;12.70;6.20;;;;;;;-2.71;67.31;100526.75;130249;1259;114735;-72
2024/01/07 12:28:13;;;;;;;13.40;6.70;;;;;;;-2.79;67.04;100526.52;130275;1256;114645;-70
2024/01/07 12:31:15;;;;;;;10.50;5.90;;;;;;;-2.86;67.17;100530.65;130197;1259;115343;-73
2024/01/07 12:34:18;;;;;;;10.30;4.60;;;;;;;-2.89;67.22;100536.73;130243;1259;114697;-70
2024/01/07 12:37:20;;;;;;;6.90;4.10;;;;;;;-3.00;66.51;100541.19;130260;1256;114707;-71
2024/01/07 12:40:24;;;;;;;13.40;6.90;;;;;;;-3.14;66.64;100547.67;130275;1259;114682;-70
2024/01/07 12:43:28;;;;;;;11.10;6.30;;;;;;;-3.28;66.70;100549.80;130352;1259;114747;-72
2024/01/07 12:46:31;;;;;;;13.20;7.60;;;;;;;-3.37;66.48;100552.67;130215;1260;114795;-68
2024/01/07 12:49:33;;;;;;;10.10;4.70;;;;;;;-3.44;66.94;100554.17;130294;1257;114693;-71
2024/01/07 12:52:39;;;;;;;13.60;7.10;;;;;;;-3.44;67.35;100564.46;130280;1259;114734;-69
2024/01/07 12:55:41;;;;;;;;;;;;;;;-3.42;68.12;100562.39;130252;1261;114673;-70
2024/01/07 12:58:43;;;;;;;7.30;3.70;;;;;;;-3.36;67.78;100561.06;130214;1259;114670;-73
2024/01/07 13:01:45;;;;;;;11.30;6.20;;;;;;;-3.38;67.77;100563.14;130328;1257;114730;-72
2024/01/07 13:04:50;;;;;;;8.50;4.30;;;;;;;-3.45;67.14;100564.80;129902;1264;115535;-70
2024/01/07 13:07:52;;;;;;;12.10;5.90;;;;;;;-3.54;67.21;100571.85;130278;1257;114712;-70
2024/01/07 13:10:55;;;;;;;12.60;6.80;;;;;;;-3.57;67.65;100571.64;130256;1256;114791;-70
2024/01/07 13:14:00;;;;;;;9.20;5.00;;;;;;;-3.62;67.42;100573.15;130264;1259;114971;-73
2024/01/07 13:17:02;;;;;;;10.00;6.00;;;;;;;-3.69;67.29;100575.33;130369;1259;114854;-70
2024/01/07 13:20:06;;;;;;;14.40;7.80;;;;;;;-3.76;67.46;100581.52;130251;1278;114755;-70
2024/01/07 13:23:08;;;;;;;14.40;7.50;;;;;;;-3.78;67.86;100585.50;130205;1278;114729;-71
2024/01/07 13:26:10;;;;;;;15.40;7.60;;;;;;;-3.77;68.07;100590.92;130153;1254;115171;-71
2024/01/07 13:29:12;;;;;;;15.10;8.20;;;;;;;-3.86;67.64;100595.36;130335;1260;114839;-74
2024/01/07 13:32:18;;;;;;;11.40;6.30;;;;;;;-3.93;67.54;100602.92;130074;1261;114905;-71
2024/01/07 13:35:20;;;;;;;17.80;8.50;;;;;;;-4.06;67.37;100598.71;130160;1257;115116;-70
2024/01/07 13:38:22;;;;;;;13.70;7.10;;;;;;;-4.18;67.16;100604.13;130302;1256;114741;-73
2024/01/07 13:41:28;;;;;;;12.20;6.70;;;;;;;-4.29;67.55;100608.30;130163;1259;114714;-68
2024/01/07 13:44:30;;;;;;;11.00;5.60;;;;;;;-4.37;67.56;100609.40;129955;1256;114901;-71
2024/01/07 13:47:32;;;;;;;13.30;7.60;;;;;;;-4.44;67.82;100610.16;130169;1257;115269;-70